Terminal Aerodrome Forecast
Issued by NWS

Home | Current Version | Previous Version | Text Only | Print | Product List | Glossary On
Versions: 1 2 3 4 5 6 7 8 9 10 11 12 13 14 15
000
FTUS42 KTBW 272300
TAFPGD
TAF
KPGD 272338Z 2800/2824 26003KT P6SM SCT020 BKN250
     FM280300 00000KT P6SM SCT020 SCT250
     FM280600 00000KT 5SM BR SCT006 BKN020
      TEMPO 2808/2812 1/2SM FG BKN006
     FM281200 00000KT 1SM BR OVC006
     FM281400 17004KT 5SM BR SCT006 BKN015
     FM281700 22006KT P6SM SCT025 SCT250=

USA.gov is the U.S. government's official web portal to all federal, state and local government web resources and services.